Time;durP1;ratioP1;P1;durP2;ratioP2;P2;SDS_P1;SDS_P2;PMS_P1;PMS_P2;Temp;Humidity;BMP_temperature;BMP_pressure;BME280_temperature;BME280_humidity;BME280_pressure;Samples;Min_cycle;Max_cycle;Signal;HPM_P1;HPM_P2
2021/09/12 00:02:13;;;;;;;;;;;;;;;;;;5047797;28;19929;-66
2021/09/12 00:04:40;;;;;;;;;;;;;;;;;;5047684;28;19925;-67
2021/09/12 00:07:07;;;;;;;;;;;;;;;;;;5046722;28;19928;-67
2021/09/12 00:09:34;;;;;;;;;;;;;;;;;;5045162;28;19924;-66
2021/09/12 00:12:01;;;;;;;;;;;;;;;;;;5048781;28;19932;-66
2021/09/12 00:14:28;;;;;;;;;;;;;;;;;;5053343;28;20016;-67
2021/09/12 00:16:55;;;;;;;;;;;;;;;;;;5052117;28;19929;-66
2021/09/12 00:19:24;;;;;;;;;;;;;;;;;;5050262;28;19925;-66
2021/09/12 00:21:51;;;;;;;;;;;;;;;;;;5051369;28;19925;-66
2021/09/12 00:24:18;;;;;;;;;;;;;;;;;;5048112;28;19924;-66
2021/09/12 00:26:45;;;;;;;;;;;;;;;;;;5049763;28;19928;-66
2021/09/12 00:29:12;;;;;;;;;;;;;;;;;;5050108;28;19925;-66
2021/09/12 00:31:39;;;;;;;;;;;;;;;;;;5054305;28;19925;-66
2021/09/12 00:34:06;;;;;;;;;;;;;;;;;;5053130;28;19929;-65
2021/09/12 00:36:33;;;;;;;;;;;;;;;;;;5054290;28;19931;-65
2021/09/12 00:39:00;;;;;;;;;;;;;;;;;;5051781;28;19929;-65
2021/09/12 00:41:27;;;;;;;;;;;;;;;;;;5050754;28;19937;-66
2021/09/12 00:43:54;;;;;;;;;;;;;;;;;;5051781;28;20392;-66
2021/09/12 00:46:21;;;;;;;;;;;;;;;;;;5053089;28;19928;-65
2021/09/12 00:48:48;;;;;;;;;;;;;;;;;;5052715;28;19933;-66
2021/09/12 00:51:15;;;;;;;;;;;;;;;;;;5050656;28;19929;-67
2021/09/12 00:53:42;;;;;;;;;;;;;;;;;;5051267;28;20426;-67
2021/09/12 00:56:09;;;;;;;;;;;;;;;;;;5052563;28;20019;-67
2021/09/12 00:58:36;;;;;;;;;;;;;;;;;;5052201;28;19972;-67
2021/09/12 01:01:03;;;;;;;;;;;;;;;;;;5053253;28;19924;-66
2021/09/12 01:03:30;;;;;;;;;;;;;;;;;;5048164;28;20410;-65
2021/09/12 01:05:57;;;;;;;;;;;;;;;;;;5050216;28;19924;-66
2021/09/12 01:08:24;;;;;;;;;;;;;;;;;;5050237;28;19936;-66
2021/09/12 01:10:51;;;;;;;;;;;;;;;;;;5050768;28;19925;-67
2021/09/12 01:13:18;;;;;;;;;;;;;;;;;;5051698;28;20351;-67
2021/09/12 01:15:45;;;;;;;;;;;;;;;;;;5051447;28;19925;-67
2021/09/12 01:18:12;;;;;;;;;;;;;;;;;;5052780;28;19925;-67
2021/09/12 01:20:39;;;;;;;;;;;;;;;;;;5052339;28;20312;-66
2021/09/12 01:23:07;;;;;;;;;;;;;;;;;;5052927;28;20046;-67
2021/09/12 01:25:34;;;;;;;;;;;;;;;;;;5049500;28;20413;-66
2021/09/12 01:28:01;;;;;;;;;;;;;;;;;;5050979;28;19925;-67
2021/09/12 01:30:28;;;;;;;;;;;;;;;;;;5047377;28;19925;-67
2021/09/12 01:32:55;;;;;;;;;;;;;;;;;;5050325;28;19925;-67
2021/09/12 01:35:22;;;;;;;;;;;;;;;;;;5051623;28;19925;-68
2021/09/12 01:37:49;;;;;;;;;;;;;;;;;;5049172;28;19929;-67
2021/09/12 01:40:16;;;;;;;;;;;;;;;;;;5049460;28;19929;-67
2021/09/12 01:42:43;;;;;;;;;;;;;;;;;;5048028;28;19925;-67
2021/09/12 01:45:10;;;;;;;;;;;;;;;;;;5044673;28;19931;-67
2021/09/12 01:47:37;;;;;;;;;;;;;;;;;;5049729;28;20014;-67
2021/09/12 01:50:04;;;;;;;;;;;;;;;;;;5051717;28;19933;-67
2021/09/12 01:52:31;;;;;;;;;;;;;;;;;;5049593;28;20423;-67
2021/09/12 01:54:58;;;;;;;;;;;;;;;;;;5050725;28;19925;-67
2021/09/12 01:57:25;;;;;;;;;;;;;;;;;;5049824;28;19925;-67
2021/09/12 01:59:52;;;;;;;;;;;;;;;;;;5048759;28;19925;-67
2021/09/12 02:02:19;;;;;;;;;;;;;;;;;;5049472;28;19924;-67
2021/09/12 02:04:46;;;;;;;;;;;;;;;;;;5051034;28;19933;-67
2021/09/12 02:07:13;;;;;;;;;;;;;;;;;;5051788;28;20294;-67
2021/09/12 02:09:40;;;;;;;;;;;;;;;;;;5048749;28;19933;-66
2021/09/12 02:12:07;;;;;;;;;;;;;;;;;;5050080;28;19932;-66
2021/09/12 02:14:34;;;;;;;;;;;;;;;;;;5049275;28;19971;-66
2021/09/12 02:17:01;;;;;;;;;;;;;;;;;;5052151;28;19932;-67
2021/09/12 02:19:28;;;;;;;;;;;;;;;;;;5051496;28;19928;-66
2021/09/12 02:21:55;;;;;;;;;;;;;;;;;;5048077;28;19925;-66
2021/09/12 02:24:22;;;;;;;;;;;;;;;;;;5047859;28;20449;-66
2021/09/12 02:26:49;;;;;;;;;;;;;;;;;;5050462;28;20020;-66
2021/09/12 02:29:16;;;;;;;;;;;;;;;;;;5051177;28;19929;-66
2021/09/12 02:31:43;;;;;;;;;;;;;;;;;;5051240;28;19974;-67
2021/09/12 02:34:10;;;;;;;;;;;;;;;;;;5049147;28;19924;-67
2021/09/12 02:36:37;;;;;;;;;;;;;;;;;;5050090;28;19932;-67
2021/09/12 02:39:04;;;;;;;;;;;;;;;;;;5051117;28;19932;-67
2021/09/12 02:41:31;;;;;;;;;;;;;;;;;;5049338;28;19974;-67
2021/09/12 02:43:58;;;;;;;;;;;;;;;;;;5050594;28;20038;-67
2021/09/12 02:46:25;;;;;;;;;;;;;;;;;;5049013;28;19932;-67
2021/09/12 02:48:52;;;;;;;;;;;;;;;;;;5049344;28;19944;-67
2021/09/12 02:51:19;;;;;;;;;;;;;;;;;;5046673;28;20414;-67
2021/09/12 02:53:46;;;;;;;;;;;;;;;;;;5049376;28;19928;-67
2021/09/12 02:56:13;;;;;;;;;;;;;;;;;;5049348;28;19931;-67
2021/09/12 02:58:40;;;;;;;;;;;;;;;;;;5050194;28;19931;-67
2021/09/12 03:01:07;;;;;;;;;;;;;;;;;;5049112;28;20147;-66
2021/09/12 03:03:34;;;;;;;;;;;;;;;;;;5049611;28;19947;-66
2021/09/12 03:06:01;;;;;;;;;;;;;;;;;;5048431;28;19925;-66
2021/09/12 03:08:28;;;;;;;;;;;;;;;;;;5049214;28;20015;-66
2021/09/12 03:10:55;;;;;;;;;;;;;;;;;;5049059;28;19925;-66
2021/09/12 03:13:22;;;;;;;;;;;;;;;;;;5045505;28;20389;-67
2021/09/12 03:15:49;;;;;;;;;;;;;;;;;;5046061;28;19955;-67
2021/09/12 03:18:16;;;;;;;;;;;;;;;;;;5049137;28;19939;-67
2021/09/12 03:20:43;;;;;;;;;;;;;;;;;;5047873;28;19925;-67
2021/09/12 03:23:09;;;;;;;;;;;;;;;;;;5048452;28;19925;-67
2021/09/12 03:25:36;;;;;;;;;;;;;;;;;;5049392;28;19928;-67
2021/09/12 03:28:03;;;;;;;;;;;;;;;;;;5050935;28;19928;-67
2021/09/12 03:30:30;;;;;;;;;;;;;;;;;;5048237;28;20395;-67
2021/09/12 03:32:57;;;;;;;;;;;;;;;;;;5048162;28;19925;-67
2021/09/12 03:35:24;;;;;;;;;;;;;;;;;;5048684;28;19928;-67
2021/09/12 03:37:51;;;;;;;;;;;;;;;;;;5046318;28;20304;-67
2021/09/12 03:40:18;;;;;;;;;;;;;;;;;;5048568;28;19939;-67
2021/09/12 03:42:45;;;;;;;;;;;;;;;;;;5069894;22;20229;-67
2021/09/12 03:45:12;;;;;;;;;;;;;;;;;;5085127;28;19928;-66
2021/09/12 03:47:39;;;;;;;;;;;;;;;;;;5084450;28;19931;-66
2021/09/12 03:50:06;;;;;;;;;;;;;;;;;;5082843;28;19924;-66
2021/09/12 03:52:33;;;;;;;;;;;;;;;;;;5086330;28;19928;-66
2021/09/12 03:55:00;;;;;;;;;;;;;;;;;;5090506;28;19924;-68
2021/09/12 03:57:27;;;;;;;;;;;;;;;;;;5090077;28;19924;-66
2021/09/12 03:59:54;;;;;;;;;;;;;;;;;;5086154;28;19924;-67
2021/09/12 04:02:21;;;;;;;;;;;;;;;;;;5088683;28;19938;-67
2021/09/12 04:04:48;;;;;;;;;;;;;;;;;;5090010;28;19924;-67
2021/09/12 04:07:15;;;;;;;;;;;;;;;;;;5091006;28;19975;-66
2021/09/12 04:09:42;;;;;;;;;;;;;;;;;;5093301;28;19947;-68
2021/09/12 04:12:09;;;;;;;;;;;;;;;;;;5092928;28;19931;-66
2021/09/12 04:14:36;;;;;;;;;;;;;;;;;;5092079;28;19924;-67
2021/09/12 04:17:03;;;;;;;;;;;;;;;;;;5091114;28;19960;-65
2021/09/12 04:19:30;;;;;;;;;;;;;;;;;;5091754;28;19931;-67
2021/09/12 04:21:57;;;;;;;;;;;;;;;;;;5087827;28;19924;-67
2021/09/12 04:24:24;;;;;;;;;;;;;;;;;;5093387;28;19928;-67
2021/09/12 04:26:51;;;;;;;;;;;;;;;;;;5091557;28;20011;-66
2021/09/12 04:29:18;;;;;;;;;;;;;;;;;;5090236;28;20311;-67
2021/09/12 04:31:45;;;;;;;;;;;;;;;;;;5091047;28;19930;-68
2021/09/12 04:34:12;;;;;;;;;;;;;;;;;;5092307;28;19931;-67
2021/09/12 04:36:39;;;;;;;;;;;;;;;;;;5090374;28;19924;-67
2021/09/12 04:39:06;;;;;;;;;;;;;;;;;;5093722;28;19928;-67
2021/09/12 04:41:33;;;;;;;;;;;;;;;;;;5090742;28;19928;-67
2021/09/12 04:44:00;;;;;;;;;;;;;;;;;;5089643;28;20019;-67
2021/09/12 04:46:27;;;;;;;;;;;;;;;;;;5093137;28;19924;-67
2021/09/12 04:48:54;;;;;;;;;;;;;;;;;;5091432;28;19931;-67
2021/09/12 04:51:21;;;;;;;;;;;;;;;;;;5093124;28;19931;-68
2021/09/12 04:53:48;;;;;;;;;;;;;;;;;;5090459;28;19924;-65
2021/09/12 04:56:15;;;;;;;;;;;;;;;;;;5091904;28;19924;-68
2021/09/12 04:58:42;;;;;;;;;;;;;;;;;;5088949;28;19928;-67
2021/09/12 05:01:09;;;;;;;;;;;;;;;;;;5090034;28;19936;-68
2021/09/12 05:03:36;;;;;;;;;;;;;;;;;;5089104;28;20276;-68
2021/09/12 05:06:03;;;;;;;;;;;;;;;;;;5092661;28;19935;-67
2021/09/12 05:08:30;;;;;;;;;;;;;;;;;;5088552;28;19930;-67
2021/09/12 05:10:57;;;;;;;;;;;;;;;;;;5092034;28;19931;-67
2021/09/12 05:13:24;;;;;;;;;;;;;;;;;;5090795;28;19954;-67
2021/09/12 05:15:51;;;;;;;;;;;;;;;;;;5088542;28;19925;-66
2021/09/12 05:18:18;;;;;;;;;;;;;;;;;;5090455;28;20392;-66
2021/09/12 05:20:45;;;;;;;;;;;;;;;;;;5090824;28;19924;-67
2021/09/12 05:23:12;;;;;;;;;;;;;;;;;;5089456;28;20380;-67
2021/09/12 05:25:39;;;;;;;;;;;;;;;;;;5090302;28;19924;-67
2021/09/12 05:28:05;;;;;;;;;;;;;;;;;;5090386;28;19924;-67
2021/09/12 05:30:32;;;;;;;;;;;;;;;;;;5090593;28;19932;-67
2021/09/12 05:32:59;;;;;;;;;;;;;;;;;;5091672;28;20299;-67
2021/09/12 05:35:26;;;;;;;;;;;;;;;;;;5091443;28;20271;-68
2021/09/12 05:37:53;;;;;;;;;;;;;;;;;;5091567;28;19951;-67
2021/09/12 05:40:20;;;;;;;;;;;;;;;;;;5089887;28;19928;-66
2021/09/12 05:42:47;;;;;;;;;;;;;;;;;;5090905;28;19924;-66
2021/09/12 05:45:14;;;;;;;;;;;;;;;;;;5089072;28;19924;-68
2021/09/12 05:47:41;;;;;;;;;;;;;;;;;;5090473;28;19946;-67
2021/09/12 05:50:08;;;;;;;;;;;;;;;;;;5090839;28;19924;-66
2021/09/12 05:52:35;;;;;;;;;;;;;;;;;;5088040;28;19924;-66
2021/09/12 05:55:02;;;;;;;;;;;;;;;;;;5090397;28;19931;-66
2021/09/12 05:57:29;;;;;;;;;;;;;;;;;;5090211;28;19924;-67
2021/09/12 05:59:56;;;;;;;;;;;;;;;;;;5089274;28;19924;-66
2021/09/12 06:02:23;;;;;;;;;;;;;;;;;;5090952;28;19932;-67
2021/09/12 06:04:50;;;;;;;;;;;;;;;;;;5090678;28;19931;-66
2021/09/12 06:07:17;;;;;;;;;;;;;;;;;;5088912;28;19930;-67
2021/09/12 06:09:44;;;;;;;;;;;;;;;;;;5089868;28;19928;-68
2021/09/12 06:12:11;;;;;;;;;;;;;;;;;;5090444;28;20385;-69
2021/09/12 06:14:38;;;;;;;;;;;;;;;;;;5088746;28;19928;-67
2021/09/12 06:17:05;;;;;;;;;;;;;;;;;;5088928;28;19939;-69
2021/09/12 06:19:32;;;;;;;;;;;;;;;;;;5090911;28;19924;-69
2021/09/12 06:21:59;;;;;;;;;;;;;;;;;;5091518;28;19928;-70
2021/09/12 06:24:26;;;;;;;;;;;;;;;;;;5091742;28;19924;-71
2021/09/12 06:26:53;;;;;;;;;;;;;;;;;;5092282;28;19934;-72
2021/09/12 06:29:20;;;;;;;;;;;;;;;;;;5092212;28;19924;-71
2021/09/12 06:31:47;;;;;;;;;;;;;;;;;;5091255;28;19924;-71
2021/09/12 06:34:14;;;;;;;;;;;;;;;;;;5091702;28;19931;-71
2021/09/12 06:36:41;;;;;;;;;;;;;;;;;;5087997;28;19934;-67
2021/09/12 06:39:08;;;;;;;;;;;;;;;;;;5091393;28;19924;-69
2021/09/12 06:41:35;;;;;;;;;;;;;;;;;;5090895;28;19930;-67
2021/09/12 06:44:02;;;;;;;;;;;;;;;;;;5091883;28;20364;-68
2021/09/12 06:46:29;;;;;;;;;;;;;;;;;;5091882;28;19923;-69
2021/09/12 06:48:56;;;;;;;;;;;;;;;;;;5090498;28;20280;-67
2021/09/12 06:51:23;;;;;;;;;;;;;;;;;;5090912;28;19925;-67
2021/09/12 06:53:50;;;;;;;;;;;;;;;;;;5091786;28;19924;-68
2021/09/12 06:56:17;;;;;;;;;;;;;;;;;;5091807;28;19931;-68
2021/09/12 06:58:44;;;;;;;;;;;;;;;;;;5091412;28;20006;-67
2021/09/12 07:01:10;;;;;;;;;;;;;;;;;;5091447;28;20391;-68
2021/09/12 07:03:37;;;;;;;;;;;;;;;;;;5092167;28;19928;-69
2021/09/12 07:06:04;;;;;;;;;;;;;;;;;;5091915;28;19935;-68
2021/09/12 07:08:31;;;;;;;;;;;;;;;;;;5091884;28;19924;-68
2021/09/12 07:10:58;;;;;;;;;;;;;;;;;;5091494;28;19935;-68
2021/09/12 07:13:25;;;;;;;;;;;;;;;;;;5091461;28;19924;-68
2021/09/12 07:15:52;;;;;;;;;;;;;;;;;;5091479;28;20027;-68
2021/09/12 07:18:19;;;;;;;;;;;;;;;;;;5091865;28;19934;-68
2021/09/12 07:20:46;;;;;;;;;;;;;;;;;;5091509;28;19924;-68
2021/09/12 07:23:13;;;;;;;;;;;;;;;;;;5091412;28;19931;-69
2021/09/12 07:25:40;;;;;;;;;;;;;;;;;;5087407;28;19948;-67
2021/09/12 07:28:07;;;;;;;;;;;;;;;;;;5091446;28;19924;-68
2021/09/12 07:30:34;;;;;;;;;;;;;;;;;;5091381;28;19928;-69
2021/09/12 07:33:01;;;;;;;;;;;;;;;;;;5091791;28;19931;-69
2021/09/12 07:35:28;;;;;;;;;;;;;;;;;;5091739;28;19946;-68
2021/09/12 07:37:55;;;;;;;;;;;;;;;;;;5091339;28;19931;-68
2021/09/12 07:40:22;;;;;;;;;;;;;;;;;;5091043;28;19931;-68
2021/09/12 07:42:49;;;;;;;;;;;;;;;;;;5091211;28;19931;-68
2021/09/12 07:45:16;;;;;;;;;;;;;;;;;;5091220;28;19931;-69
2021/09/12 07:47:43;;;;;;;;;;;;;;;;;;5091721;28;19928;-68
2021/09/12 07:50:10;;;;;;;;;;;;;;;;;;5090989;28;20023;-69
2021/09/12 07:52:41;;;;;;;;;;;;;;;;;;5091290;28;20383;-69
2021/09/12 07:55:08;;;;;;;;;;;;;;;;;;5091120;28;20334;-68
2021/09/12 07:57:35;;;;;;;;;;;;;;;;;;5091171;28;19928;-67
2021/09/12 08:00:02;;;;;;;;;;;;;;;;;;5090690;28;19928;-68
2021/09/12 08:02:29;;;;;;;;;;;;;;;;;;5091274;28;20469;-67
2021/09/12 08:04:56;;;;;;;;;;;;;;;;;;5091516;28;20396;-68
2021/09/12 08:07:23;;;;;;;;;;;;;;;;;;5091254;28;19950;-70
2021/09/12 08:09:50;;;;;;;;;;;;;;;;;;5091018;28;19924;-68
2021/09/12 08:12:17;;;;;;;;;;;;;;;;;;5090994;28;19928;-69
2021/09/12 08:14:44;;;;;;;;;;;;;;;;;;5091103;28;20303;-68
2021/09/12 08:17:11;;;;;;;;;;;;;;;;;;5091220;28;19924;-68
2021/09/12 08:19:38;;;;;;;;;;;;;;;;;;5090976;28;20368;-68
2021/09/12 08:22:05;;;;;;;;;;;;;;;;;;5091097;28;19934;-69
2021/09/12 08:24:33;;;;;;;;;;;;;;;;;;5090687;28;19932;-68
2021/09/12 08:27:00;;;;;;;;;;;;;;;;;;5091022;28;19931;-68
2021/09/12 08:29:27;;;;;;;;;;;;;;;;;;5090744;28;19932;-69
2021/09/12 08:31:55;;;;;;;;;;;;;;;;;;5091490;28;19924;-71
2021/09/12 08:34:23;;;;;;;;;;;;;;;;;;5090959;28;19925;-66
2021/09/12 08:36:50;;;;;;;;;;;;;;;;;;5087870;28;19928;-69
2021/09/12 08:39:17;;;;;;;;;;;;;;;;;;5090565;28;20359;-65
2021/09/12 08:41:44;;;;;;;;;;;;;;;;;;5090738;28;19924;-65
2021/09/12 08:44:11;;;;;;;;;;;;;;;;;;5091071;28;20019;-69
2021/09/12 08:46:38;;;;;;;;;;;;;;;;;;5090858;28;19975;-68
2021/09/12 08:49:05;;;;;;;;;;;;;;;;;;5090584;28;19928;-68
2021/09/12 08:51:32;;;;;;;;;;;;;;;;;;5093613;28;20493;-68
2021/09/12 08:54:00;;;;;;;;;;;;;;;;;;5094390;28;19979;-68
2021/09/12 08:56:27;;;;;;;;;;;;;;;;;;5094575;28;19924;-67
2021/09/12 08:58:54;;;;;;;;;;;;;;;;;;5094151;28;19928;-68
2021/09/12 09:01:21;;;;;;;;;;;;;;;;;;5094158;28;19932;-68
2021/09/12 09:03:50;;;;;;;;;;;;;;;;;;5094369;28;20032;-68
2021/09/12 09:06:18;;;;;;;;;;;;;;;;;;5094560;28;19985;-68
2021/09/12 09:08:45;;;;;;;;;;;;;;;;;;5094273;28;19981;-69
2021/09/12 09:11:12;;;;;;;;;;;;;;;;;;5094278;28;20366;-68
2021/09/12 09:13:39;;;;;;;;;;;;;;;;;;5094526;28;20376;-68
2021/09/12 09:16:06;;;;;;;;;;;;;;;;;;5094019;28;19931;-68
2021/09/12 09:18:33;;;;;;;;;;;;;;;;;;5094051;28;20011;-68
2021/09/12 09:21:00;;;;;;;;;;;;;;;;;;5093278;28;19930;-67
2021/09/12 09:23:27;;;;;;;;;;;;;;;;;;5094436;28;19930;-68
2021/09/12 09:25:54;;;;;;;;;;;;;;;;;;5093924;28;19924;-66
2021/09/12 09:28:21;;;;;;;;;;;;;;;;;;5094205;28;20396;-68
2021/09/12 09:30:48;;;;;;;;;;;;;;;;;;5093527;28;19924;-66
2021/09/12 09:33:15;;;;;;;;;;;;;;;;;;5094099;28;19930;-67
2021/09/12 09:35:42;;;;;;;;;;;;;;;;;;5093695;28;19924;-68
2021/09/12 09:38:09;;;;;;;;;;;;;;;;;;5093760;28;19924;-68
2021/09/12 09:40:36;;;;;;;;;;;;;;;;;;5093476;28;20361;-68
2021/09/12 09:43:03;;;;;;;;;;;;;;;;;;5108143;22;19928;-67
2021/09/12 09:45:30;;;;;;;;;;;;;;;;;;5100381;28;19932;-69
2021/09/12 09:47:57;;;;;;;;;;;;;;;;;;5102617;28;19927;-66
2021/09/12 09:50:24;;;;;;;;;;;;;;;;;;5091986;28;19955;-63
2021/09/12 09:52:52;;;;;;;;;;;;;;;;;;5096285;28;19971;-65
2021/09/12 09:55:19;;;;;;;;;;;;;;;;;;5086058;28;19931;-67
2021/09/12 09:57:46;;;;;;;;;;;;;;;;;;5089125;28;20031;-66
2021/09/12 10:00:13;;;;;;;;;;;;;;;;;;5073123;28;20380;-67
2021/09/12 10:02:40;;;;;;;;;;;;;;;;;;5084632;28;19924;-66
2021/09/12 10:05:07;;;;;;;;;;;;;;;;;;5085141;28;19925;-69
2021/09/12 10:07:34;;;;;;;;;;;;;;;;;;5088799;28;19930;-66
2021/09/12 10:10:01;;;;;;;;;;;;;;;;;;5088289;28;19924;-66
2021/09/12 10:12:28;;;;;;;;;;;;;;;;;;5087588;28;20268;-66
2021/09/12 10:14:55;;;;;;;;;;;;;;;;;;5084883;28;20311;-65
2021/09/12 10:17:21;;;;;;;;;;;;;;;;;;5087890;28;19928;-66
2021/09/12 10:19:49;;;;;;;;;;;;;;;;;;5087885;28;20015;-66
2021/09/12 10:22:16;;;;;;;;;;;;;;;;;;5088218;28;19928;-65
2021/09/12 10:24:42;;;;;;;;;;;;;;;;;;5085066;28;20311;-65
2021/09/12 10:27:09;;;;;;;;;;;;;;;;;;5088381;28;20354;-67
2021/09/12 10:29:36;;;;;;;;;;;;;;;;;;5087931;28;19931;-67
2021/09/12 10:32:03;;;;;;;;;;;;;;;;;;5087893;28;20016;-69
2021/09/12 10:34:30;;;;;;;;;;;;;;;;;;5084381;28;20312;-66
2021/09/12 10:36:57;;;;;;;;;;;;;;;;;;5087796;28;19931;-66
2021/09/12 10:39:25;;;;;;;;;;;;;;;;;;5087662;28;20033;-65
2021/09/12 10:41:52;;;;;;;;;;;;;;;;;;5087986;28;20389;-68
2021/09/12 10:44:19;;;;;;;;;;;;;;;;;;5079351;28;20007;-69
2021/09/12 10:46:46;;;;;;;;;;;;;;;;;;5087340;28;19928;-64
2021/09/12 10:49:13;;;;;;;;;;;;;;;;;;5087772;28;19924;-69
2021/09/12 10:51:40;;;;;;;;;;;;;;;;;;5086003;28;19924;-69
2021/09/12 10:54:07;;;;;;;;;;;;;;;;;;5084397;28;20390;-65
2021/09/12 10:56:34;;;;;;;;;;;;;;;;;;5085504;28;19924;-66
2021/09/12 10:59:01;;;;;;;;;;;;;;;;;;5079287;28;20028;-70
2021/09/12 11:01:28;;;;;;;;;;;;;;;;;;5087201;28;19931;-66
2021/09/12 11:03:56;;;;;;;;;;;;;;;;;;5084027;28;19929;-67
2021/09/12 11:06:23;;;;;;;;;;;;;;;;;;5084668;28;19993;-66
2021/09/12 11:08:50;;;;;;;;;;;;;;;;;;5078932;28;20392;-67
2021/09/12 11:11:17;;;;;;;;;;;;;;;;;;5087486;28;19924;-66
2021/09/12 11:13:44;;;;;;;;;;;;;;;;;;5083277;28;20031;-66
2021/09/12 11:16:11;;;;;;;;;;;;;;;;;;5086689;28;19982;-66
2021/09/12 11:18:38;;;;;;;;;;;;;;;;;;5086895;28;20003;-65
2021/09/12 11:21:06;;;;;;;;;;;;;;;;;;5087448;28;19924;-67
2021/09/12 11:23:35;;;;;;;;;;;;;;;;;;5083912;28;19931;-66
2021/09/12 11:26:02;;;;;;;;;;;;;;;;;;5085887;28;19983;-66
2021/09/12 11:28:29;;;;;;;;;;;;;;;;;;5087417;28;19924;-65
2021/09/12 11:30:56;;;;;;;;;;;;;;;;;;5087153;28;19924;-65
2021/09/12 11:33:23;;;;;;;;;;;;;;;;;;5073768;28;20312;-66
2021/09/12 11:35:50;;;;;;;;;;;;;;;;;;5085507;28;19925;-67
2021/09/12 11:38:17;;;;;;;;;;;;;;;;;;5087110;28;19935;-65
2021/09/12 11:40:44;;;;;;;;;;;;;;;;;;5086541;28;20322;-67
2021/09/12 11:43:11;;;;;;;;;;;;;;;;;;5084282;28;20375;-65
2021/09/12 11:45:38;;;;;;;;;;;;;;;;;;5075479;28;19932;-66
2021/09/12 11:48:05;;;;;;;;;;;;;;;;;;5082046;28;19924;-64
2021/09/12 11:50:32;;;;;;;;;;;;;;;;;;5081511;28;19935;-67
2021/09/12 11:52:59;;;;;;;;;;;;;;;;;;5077154;28;20073;-66
2021/09/12 11:55:27;;;;;;;;;;;;;;;;;;5085378;28;19928;-68
2021/09/12 11:57:54;;;;;;;;;;;;;;;;;;5085266;28;19924;-66
2021/09/12 12:00:21;;;;;;;;;;;;;;;;;;5078464;28;20341;-64
2021/09/12 12:02:48;;;;;;;;;;;;;;;;;;5070932;28;19924;-69
2021/09/12 12:05:17;;;;;;;;;;;;;;;;;;5085014;28;19931;-66
2021/09/12 12:07:44;;;;;;;;;;;;;;;;;;5086489;28;20411;-69
2021/09/12 12:10:11;;;;;;;;;;;;;;;;;;5086405;28;19931;-66
2021/09/12 12:12:38;;;;;;;;;;;;;;;;;;5084515;28;20015;-69
2021/09/12 12:15:06;;;;;;;;;;;;;;;;;;5085442;28;20377;-65
2021/09/12 12:17:33;;;;;;;;;;;;;;;;;;5087234;28;20022;-66
2021/09/12 12:20:00;;;;;;;;;;;;;;;;;;5087002;28;19934;-66
2021/09/12 12:22:27;;;;;;;;;;;;;;;;;;5078373;28;19928;-66
2021/09/12 12:24:54;;;;;;;;;;;;;;;;;;5085877;28;20018;-65
2021/09/12 12:27:21;;;;;;;;;;;;;;;;;;5090817;28;19924;-67
2021/09/12 12:29:48;;;;;;;;;;;;;;;;;;5090782;28;19924;-66
2021/09/12 12:32:15;;;;;;;;;;;;;;;;;;5076600;28;19931;-67
2021/09/12 12:34:43;;;;;;;;;;;;;;;;;;5088391;28;20296;-66
2021/09/12 12:37:10;;;;;;;;;;;;;;;;;;5090489;28;19928;-64
2021/09/12 12:39:37;;;;;;;;;;;;;;;;;;5090396;28;20034;-64
2021/09/12 12:42:04;;;;;;;;;;;;;;;;;;5088630;28;19924;-65
2021/09/12 12:44:31;;;;;;;;;;;;;;;;;;5087950;28;19924;-63
2021/09/12 12:46:58;;;;;;;;;;;;;;;;;;5083246;28;20303;-66
2021/09/12 12:49:25;;;;;;;;;;;;;;;;;;5089662;28;20018;-65
2021/09/12 12:51:52;;;;;;;;;;;;;;;;;;5080134;28;20413;-66
2021/09/12 12:54:20;;;;;;;;;;;;;;;;;;5087361;28;20015;-64
2021/09/12 12:56:47;;;;;;;;;;;;;;;;;;5090218;28;19935;-64
2021/09/12 12:59:14;;;;;;;;;;;;;;;;;;5089595;28;20023;-65
2021/09/12 13:01:41;;;;;;;;;;;;;;;;;;5087892;28;19928;-65
2021/09/12 13:04:08;;;;;;;;;;;;;;;;;;5086837;28;19972;-68
2021/09/12 13:06:35;;;;;;;;;;;;;;;;;;5089858;28;20015;-65
2021/09/12 13:09:02;;;;;;;;;;;;;;;;;;5077069;28;20368;-66
2021/09/12 13:11:30;;;;;;;;;;;;;;;;;;5088395;28;20019;-65
2021/09/12 13:13:57;;;;;;;;;;;;;;;;;;5086759;28;20542;-65
2021/09/12 13:16:24;;;;;;;;;;;;;;;;;;5089611;28;19924;-65
2021/09/12 13:18:51;;;;;;;;;;;;;;;;;;5075990;28;19924;-66
2021/09/12 13:21:18;;;;;;;;;;;;;;;;;;5078387;28;20308;-65
2021/09/12 13:23:45;;;;;;;;;;;;;;;;;;5079727;28;19931;-65
2021/09/12 13:26:12;;;;;;;;;;;;;;;;;;5089501;28;19924;-66
2021/09/12 13:28:39;;;;;;;;;;;;;;;;;;5089255;28;19930;-66
2021/09/12 13:31:07;;;;;;;;;;;;;;;;;;5088213;28;20010;-65
2021/09/12 13:33:34;;;;;;;;;;;;;;;;;;5086052;28;20066;-66
2021/09/12 13:36:01;;;;;;;;;;;;;;;;;;5086313;28;19924;-67
2021/09/12 13:38:28;;;;;;;;;;;;;;;;;;5088782;28;19939;-65
2021/09/12 13:40:55;;;;;;;;;;;;;;;;;;5088246;28;19924;-67
2021/09/12 13:43:22;;;;;;;;;;;;;;;;;;5085372;28;19925;-64
2021/09/12 13:45:49;;;;;;;;;;;;;;;;;;5089010;28;20010;-67
2021/09/12 13:48:16;;;;;;;;;;;;;;;;;;5089309;28;20310;-66
2021/09/12 13:50:43;;;;;;;;;;;;;;;;;;5088146;28;20007;-66
2021/09/12 13:53:10;;;;;;;;;;;;;;;;;;5085291;28;19947;-64
2021/09/12 13:55:37;;;;;;;;;;;;;;;;;;5088865;28;20014;-68
2021/09/12 13:58:04;;;;;;;;;;;;;;;;;;5088541;28;19989;-65
2021/09/12 14:00:33;;;;;;;;;;;;;;;;;;5084214;28;19924;-68
2021/09/12 14:03:00;;;;;;;;;;;;;;;;;;5081742;28;19931;-64
2021/09/12 14:05:27;;;;;;;;;;;;;;;;;;5088847;28;19928;-64
2021/09/12 14:07:54;;;;;;;;;;;;;;;;;;5088529;28;20356;-65
2021/09/12 14:10:21;;;;;;;;;;;;;;;;;;5076393;28;20438;-66
2021/09/12 14:12:48;;;;;;;;;;;;;;;;;;5080323;28;19925;-66
2021/09/12 14:15:15;;;;;;;;;;;;;;;;;;5076244;28;20465;-65
2021/09/12 14:17:42;;;;;;;;;;;;;;;;;;5088855;28;20015;-66
2021/09/12 14:20:09;;;;;;;;;;;;;;;;;;5088371;28;20010;-66
2021/09/12 14:22:36;;;;;;;;;;;;;;;;;;5084823;28;19925;-66
2021/09/12 14:25:03;;;;;;;;;;;;;;;;;;5087769;28;19932;-65
2021/09/12 14:27:30;;;;;;;;;;;;;;;;;;5088558;28;19924;-66
2021/09/12 14:29:57;;;;;;;;;;;;;;;;;;5077379;28;19970;-65
2021/09/12 14:32:24;;;;;;;;;;;;;;;;;;5084535;28;20412;-67
2021/09/12 14:34:51;;;;;;;;;;;;;;;;;;5087792;28;20014;-67
2021/09/12 14:37:18;;;;;;;;;;;;;;;;;;5088237;28;19924;-67
2021/09/12 14:39:45;;;;;;;;;;;;;;;;;;5088552;28;20292;-69
2021/09/12 14:42:14;;;;;;;;;;;;;;;;;;5080741;28;20272;-65
2021/09/12 14:44:43;;;;;;;;;;;;;;;;;;5087212;28;20460;-67
2021/09/12 14:47:10;;;;;;;;;;;;;;;;;;5087952;28;20002;-64
2021/09/12 14:49:37;;;;;;;;;;;;;;;;;;5086974;28;20371;-67
2021/09/12 14:52:06;;;;;;;;;;;;;;;;;;5071150;28;20116;-63
2021/09/12 14:54:33;;;;;;;;;;;;;;;;;;5087479;28;19928;-68
2021/09/12 14:57:00;;;;;;;;;;;;;;;;;;5087946;28;20007;-66
2021/09/12 14:59:27;;;;;;;;;;;;;;;;;;5087767;28;20015;-64
2021/09/12 15:01:54;;;;;;;;;;;;;;;;;;5071878;28;19924;-66
2021/09/12 15:04:23;;;;;;;;;;;;;;;;;;5086292;28;20295;-66
2021/09/12 15:06:50;;;;;;;;;;;;;;;;;;5087292;28;20434;-66
2021/09/12 15:09:17;;;;;;;;;;;;;;;;;;5087238;28;19924;-64
2021/09/12 15:11:44;;;;;;;;;;;;;;;;;;5084182;28;19930;-65
2021/09/12 15:14:11;;;;;;;;;;;;;;;;;;5086329;28;20015;-66
2021/09/12 15:16:38;;;;;;;;;;;;;;;;;;5080268;28;20280;-66
2021/09/12 15:19:05;;;;;;;;;;;;;;;;;;5082689;28;19924;-66
2021/09/12 15:21:32;;;;;;;;;;;;;;;;;;5083041;28;19924;-65
2021/09/12 15:23:59;;;;;;;;;;;;;;;;;;5086160;28;20014;-66
2021/09/12 15:26:26;;;;;;;;;;;;;;;;;;5086823;28;19924;-67
2021/09/12 15:28:54;;;;;;;;;;;;;;;;;;5086960;28;19930;-66
2021/09/12 15:31:21;;;;;;;;;;;;;;;;;;5072181;28;19978;-66
2021/09/12 15:33:48;;;;;;;;;;;;;;;;;;5084399;28;19929;-70
2021/09/12 15:36:15;;;;;;;;;;;;;;;;;;5078403;28;19928;-66
2021/09/12 15:38:42;;;;;;;;;;;;;;;;;;5086970;28;19958;-65
2021/09/12 15:41:09;;;;;;;;;;;;;;;;;;5084054;28;19935;-65
2021/09/12 15:43:36;;;;;;;;;;;;;;;;;;5085505;28;20027;-66
2021/09/12 15:46:03;;;;;;;;;;;;;;;;;;5086753;28;19974;-66
2021/09/12 15:48:30;;;;;;;;;;;;;;;;;;5086753;28;20026;-66
2021/09/12 15:50:57;;;;;;;;;;;;;;;;;;5081940;28;19932;-66
2021/09/12 15:53:24;;;;;;;;;;;;;;;;;;5083008;28;20341;-66
2021/09/12 15:55:51;;;;;;;;;;;;;;;;;;5077154;28;19924;-67
2021/09/12 15:58:18;;;;;;;;;;;;;;;;;;5086740;28;19994;-66
2021/09/12 16:00:45;;;;;;;;;;;;;;;;;;5083518;28;19932;-66
2021/09/12 16:03:12;;;;;;;;;;;;;;;;;;5088582;28;19946;-66
2021/09/12 16:05:39;;;;;;;;;;;;;;;;;;5090847;28;20298;-66
2021/09/12 16:08:06;;;;;;;;;;;;;;;;;;5079372;28;19981;-66
2021/09/12 16:10:33;;;;;;;;;;;;;;;;;;5088559;28;19928;-66
2021/09/12 16:12:59;;;;;;;;;;;;;;;;;;5088147;28;19931;-66
2021/09/12 16:15:26;;;;;;;;;;;;;;;;;;5090356;28;19924;-66
2021/09/12 16:17:53;;;;;;;;;;;;;;;;;;5090515;28;19946;-66
2021/09/12 16:20:20;;;;;;;;;;;;;;;;;;5088675;28;19924;-66
2021/09/12 16:22:47;;;;;;;;;;;;;;;;;;5087575;28;20414;-66
2021/09/12 16:25:14;;;;;;;;;;;;;;;;;;5090535;28;20014;-66
2021/09/12 16:27:41;;;;;;;;;;;;;;;;;;5090261;28;20450;-66
2021/09/12 16:30:08;;;;;;;;;;;;;;;;;;5088833;28;19924;-66
2021/09/12 16:32:35;;;;;;;;;;;;;;;;;;5087710;28;19932;-66
2021/09/12 16:35:02;;;;;;;;;;;;;;;;;;5090806;28;19925;-66
2021/09/12 16:37:30;;;;;;;;;;;;;;;;;;5077033;28;20092;-66
2021/09/12 16:39:57;;;;;;;;;;;;;;;;;;5089072;28;20011;-66
2021/09/12 16:42:23;;;;;;;;;;;;;;;;;;5087045;28;19924;-66
2021/09/12 16:44:57;;;;;;;;;;;;;;;;;;5089777;28;19931;-67